createdAt,value
2019-03-28T00:00:52.350Z,99366.07
2019-03-28T00:03:27.961Z,99369.09
2019-03-28T00:06:02.082Z,99361.44
2019-03-28T00:08:35.646Z,99358.56
2019-03-28T00:11:10.691Z,99356.94
2019-03-28T00:15:52.664Z,99356.06
2019-03-28T00:18:28.248Z,99346.04
2019-03-28T00:21:03.796Z,99348.77
2019-03-28T00:24:03.699Z,99345.34
2019-03-28T00:26:39.297Z,99351.11
2019-03-28T00:29:14.668Z,99353.43
2019-03-28T00:31:50.300Z,99352.78
2019-03-28T00:34:25.701Z,99352.78
2019-03-28T00:37:01.394Z,99352.63
2019-03-28T00:39:36.711Z,99346.82
2019-03-28T00:42:12.293Z,99349.95
2019-03-28T00:45:09.727Z,99346.52
2019-03-28T00:47:43.619Z,99346.52
2019-03-28T00:50:19.305Z,99348.67
2019-03-28T00:52:54.697Z,99341.66
2019-03-28T00:55:30.301Z,99339.25
2019-03-28T00:58:05.704Z,99341.72
2019-03-28T01:00:41.291Z,99338.61
2019-03-28T01:03:16.893Z,99341.55
2019-03-28T01:05:50.648Z,99342.53
2019-03-28T01:08:26.963Z,99343.92
2019-03-28T01:11:02.307Z,99343.92
2019-03-28T01:13:37.739Z,99337.48
2019-03-28T01:16:13.300Z,99337.48
2019-03-28T01:18:48.733Z,99345.72
2019-03-28T01:21:24.314Z,99347.42
2019-03-28T01:23:59.718Z,99345.28
2019-03-28T01:26:35.301Z,99347.23
2019-03-28T01:29:10.727Z,99339.34
2019-03-28T01:31:46.284Z,99338.96
2019-03-28T01:34:21.692Z,99339.41
2019-03-28T01:36:57.292Z,99337.08
2019-03-28T01:39:32.662Z,99337.08
2019-03-28T01:42:08.301Z,99342.84
2019-03-28T01:44:43.740Z,99340.31
2019-03-28T01:48:14.358Z,99344.29
2019-03-28T01:50:49.990Z,99347.83
2019-03-28T01:53:25.742Z,99335.44
2019-03-28T01:55:59.621Z,99335.44
2019-03-28T01:58:34.757Z,99340.46
2019-03-28T02:01:10.291Z,99345.30
2019-03-28T02:03:45.727Z,99341.44
2019-03-28T02:06:41.367Z,99339.70
2019-03-28T02:09:16.915Z,99336.73
2019-03-28T02:11:52.385Z,99335.30
2019-03-28T02:14:27.889Z,99335.30
2019-03-28T02:17:01.740Z,99326.55
2019-03-28T02:19:36.958Z,99344.70
2019-03-28T02:22:12.402Z,99338.55
2019-03-28T02:24:47.717Z,99334.41
2019-03-28T02:27:24.643Z,99334.28
2019-03-28T02:29:58.608Z,99337.80
2019-03-28T02:32:34.213Z,99332.78
2019-03-28T02:36:51.641Z,99332.84
2019-03-28T02:39:27.299Z,99336.36
2019-03-28T02:42:02.743Z,99336.98
2019-03-28T02:44:38.290Z,99332.56
2019-03-28T02:47:13.775Z,99328.02
2019-03-28T02:49:47.631Z,99328.02
2019-03-28T02:52:23.966Z,99322.45
2019-03-28T02:54:59.375Z,99331.78
2019-03-28T02:57:41.692Z,99331.78
2019-03-28T03:02:23.341Z,99331.83
2019-03-28T03:04:58.715Z,99334.99
2019-03-28T03:07:32.439Z,99330.39
2019-03-28T03:10:09.153Z,99334.78
2019-03-28T03:12:44.712Z,99333.67
2019-03-28T03:15:20.299Z,99338.51
2019-03-28T03:17:55.825Z,99334.72
2019-03-28T03:20:29.634Z,99341.89
2019-03-28T03:23:04.960Z,99340.48
2019-03-28T03:25:40.434Z,99348.80
2019-03-28T03:28:15.710Z,99348.80
2019-03-28T03:30:51.368Z,99342.94
2019-03-28T03:33:26.699Z,99343.00
2019-03-28T03:36:02.286Z,99348.02
2019-03-28T03:38:37.706Z,99340.99
2019-03-28T03:41:13.287Z,99340.99
2019-03-28T03:43:49.673Z,99340.13
2019-03-28T03:46:25.302Z,99343.48
2019-03-28T03:51:04.881Z,99337.56
2019-03-28T03:53:38.589Z,99337.56
2019-03-28T03:56:13.681Z,99343.08
2019-03-28T03:58:49.284Z,99341.62
2019-03-28T04:01:24.718Z,99343.72
2019-03-28T04:03:58.625Z,99340.43
2019-03-28T04:06:33.724Z,99339.78
2019-03-28T04:09:10.259Z,99329.89
2019-03-28T04:11:45.720Z,99329.89
2019-03-28T04:14:21.294Z,99337.13
2019-03-28T04:16:56.707Z,99334.21
2019-03-28T04:19:32.473Z,99339.70
2019-03-28T04:22:07.934Z,99333.40
2019-03-28T04:24:43.285Z,99336.01
2019-03-28T04:27:18.700Z,99339.02
2019-03-28T04:29:52.589Z,99337.30
2019-03-28T04:32:28.736Z,99338.20
2019-03-28T04:35:04.284Z,99338.20
2019-03-28T04:37:40.693Z,99345.92
2019-03-28T04:40:16.298Z,99345.92
2019-03-28T04:42:51.940Z,99347.14
2019-03-28T04:45:27.288Z,99352.66
2019-03-28T04:48:02.732Z,99358.30
2019-03-28T04:50:39.275Z,99361.05
2019-03-28T04:53:14.744Z,99362.41
2019-03-28T04:55:50.289Z,99361.94
2019-03-28T04:58:25.679Z,99361.94
2019-03-28T05:01:01.285Z,99359.48
2019-03-28T05:03:36.673Z,99366.76
2019-03-28T05:06:12.280Z,99358.79
2019-03-28T05:08:47.674Z,99357.88
2019-03-28T05:11:22.945Z,99371.06
2019-03-28T05:13:58.280Z,99368.03
2019-03-28T05:16:33.701Z,99369.01
2019-03-28T05:19:09.280Z,99373.88
2019-03-28T05:21:44.945Z,99368.95
2019-03-28T05:24:18.668Z,99370.58
2019-03-28T05:26:53.738Z,99369.60
2019-03-28T05:29:29.286Z,99369.92
2019-03-28T05:32:04.711Z,99371.30
2019-03-28T05:34:40.248Z,99373.44
2019-03-28T05:37:15.706Z,99380.17
2019-03-28T05:39:51.252Z,99381.14
2019-03-28T05:42:26.712Z,99381.14
2019-03-28T05:45:02.266Z,99384.71
2019-03-28T05:47:37.742Z,99384.36
2019-03-28T05:50:11.584Z,99378.41
2019-03-28T05:52:46.724Z,99384.36
2019-03-28T05:55:22.279Z,99383.06
2019-03-28T05:57:57.667Z,99387.66
2019-03-28T06:00:32.943Z,99378.61
2019-03-28T06:03:08.352Z,99381.23
2019-03-28T06:05:43.713Z,99381.23
2019-03-28T06:08:19.292Z,99381.02
2019-03-28T06:10:54.664Z,99384.09
2019-03-28T06:13:29.957Z,99381.16
2019-03-28T06:16:45.693Z,99385.16
2019-03-28T06:19:21.355Z,99385.16
2019-03-28T06:21:56.690Z,99384.37
2019-03-28T06:24:31.928Z,99386.81
2019-03-28T06:27:07.555Z,99386.03
2019-03-28T06:29:43.282Z,99397.69
2019-03-28T06:32:18.804Z,99401.45
2019-03-28T06:34:54.281Z,99395.28
2019-03-28T06:37:29.694Z,99400.42
2019-03-28T06:40:05.651Z,99392.87
2019-03-28T06:42:41.279Z,99401.14
2019-03-28T06:45:16.703Z,99398.55
2019-03-28T06:47:52.282Z,99399.45
2019-03-28T06:50:27.710Z,99401.30
2019-03-28T06:53:03.273Z,99401.63
2019-03-28T06:55:38.703Z,99405.57
2019-03-28T06:58:14.281Z,99408.86
2019-03-28T07:00:49.706Z,99415.77
2019-03-28T07:03:25.275Z,99407.73
2019-03-28T07:06:00.749Z,99407.92
2019-03-28T07:08:36.292Z,99411.41
2019-03-28T07:11:11.716Z,99410.62
2019-03-28T07:13:47.273Z,99410.62
2019-03-28T07:16:22.681Z,99420.93
2019-03-28T07:18:58.280Z,99418.36
2019-03-28T07:21:33.718Z,99414.70
2019-03-28T07:24:09.282Z,99416.70
2019-03-28T07:26:44.711Z,99418.49
2019-03-28T07:29:20.282Z,99431.09
2019-03-28T07:31:55.684Z,99424.80
2019-03-28T07:34:31.278Z,99423.16
2019-03-28T07:37:06.718Z,99418.49
2019-03-28T07:39:42.350Z,99415.14
2019-03-28T07:42:17.699Z,99419.59
2019-03-28T07:44:53.533Z,99412.63
2019-03-28T07:47:28.883Z,99423.02
2019-03-28T07:50:05.281Z,99423.27
2019-03-28T07:52:40.943Z,99417.05
2019-03-28T07:55:16.810Z,99414.30
2019-03-28T07:57:52.374Z,99421.50
2019-03-28T08:00:27.891Z,99421.50
2019-03-28T08:03:03.276Z,99417.90
2019-03-28T08:05:38.888Z,99420.44
2019-03-28T08:08:12.602Z,99420.56
2019-03-28T08:10:47.706Z,99418.80
2019-03-28T08:13:23.273Z,99423.51
2019-03-28T08:15:59.279Z,99428.44
2019-03-28T08:18:34.746Z,99428.84
2019-03-28T08:21:08.584Z,99435.64
2019-03-28T08:23:43.893Z,99431.98
2019-03-28T08:26:19.236Z,99435.64
2019-03-28T08:28:54.735Z,99434.48
2019-03-28T08:31:30.286Z,99436.77
2019-03-28T08:34:05.883Z,99435.97
2019-03-28T08:36:40.285Z,99435.97
2019-03-28T08:39:15.632Z,99437.23
2019-03-28T08:41:51.279Z,99437.23
2019-03-28T08:44:27.783Z,99439.39
2019-03-28T08:47:06.064Z,99442.69
2019-03-28T08:49:40.287Z,99447.73
2019-03-28T08:52:16.713Z,99443.90
2019-03-28T08:54:52.286Z,99446.96
2019-03-28T08:57:27.679Z,99443.97
2019-03-28T09:00:01.634Z,99450.70
2019-03-28T09:02:38.753Z,99458.13
2019-03-28T09:05:14.307Z,99459.59
2019-03-28T09:07:49.702Z,99459.59
2019-03-28T09:10:23.637Z,99463.20
2019-03-28T09:12:59.113Z,99459.96
2019-03-28T09:15:43.790Z,99457.12
2019-03-28T09:18:11.889Z,99454.84
2019-03-28T09:20:47.282Z,99454.48
2019-03-28T09:23:22.744Z,99455.86
2019-03-28T09:25:58.290Z,99461.23
2019-03-28T09:28:33.744Z,99457.20
2019-03-28T09:31:19.372Z,99452.79
2019-03-28T09:33:45.291Z,99452.67
2019-03-28T09:36:20.731Z,99452.67
2019-03-28T09:38:54.625Z,99452.37
2019-03-28T09:41:31.289Z,99452.08
2019-03-28T09:44:06.733Z,99452.45
2019-03-28T09:46:40.659Z,99456.22
2019-03-28T09:49:15.912Z,99456.81
2019-03-28T09:51:51.369Z,99461.45
2019-03-28T09:54:26.724Z,99453.70
2019-03-28T09:57:02.290Z,99463.67
2019-03-28T09:59:37.721Z,99458.89
2019-03-28T10:02:13.391Z,99456.68
2019-03-28T10:04:48.914Z,99458.43
2019-03-28T10:07:24.291Z,99459.32
2019-03-28T10:10:00.499Z,99463.80
2019-03-28T10:12:35.933Z,99461.67
2019-03-28T10:15:11.888Z,99453.23
2019-03-28T10:17:47.294Z,99453.23
2019-03-28T10:20:22.704Z,99455.07
2019-03-28T10:22:58.287Z,99456.78
2019-03-28T10:25:34.730Z,99452.64
2019-03-28T10:28:08.605Z,99453.50
2019-03-28T10:30:45.892Z,99458.06
2019-03-28T10:33:21.765Z,99455.70
2019-03-28T10:35:56.633Z,99455.70
2019-03-28T10:38:32.297Z,99462.27
2019-03-28T10:41:08.296Z,99457.36
2019-03-28T10:43:44.286Z,99465.66
2019-03-28T10:46:19.741Z,99455.77
2019-03-28T10:48:54.577Z,99459.32
2019-03-28T10:51:29.894Z,99460.39
2019-03-28T10:54:03.639Z,99457.03
2019-03-28T10:56:51.063Z,99459.30
2019-03-28T10:59:23.188Z,99462.98
2019-03-28T11:01:53.286Z,99462.25
2019-03-28T11:04:28.725Z,99464.28
2019-03-28T11:07:02.593Z,99466.99
2019-03-28T11:09:37.738Z,99463.50
2019-03-28T11:12:13.283Z,99458.98
2019-03-28T11:14:48.964Z,99458.98
2019-03-28T11:17:25.132Z,99455.77
2019-03-28T11:20:00.694Z,99458.80
2019-03-28T11:22:34.474Z,99461.20
2019-03-28T11:25:10.291Z,99461.20
2019-03-28T11:27:45.720Z,99464.16
2019-03-28T11:30:19.837Z,99462.77
2019-03-28T11:32:55.293Z,99460.33
2019-03-28T11:35:30.766Z,99468.45
2019-03-28T11:40:28.010Z,99458.08
2019-03-28T11:43:03.370Z,99456.36
2019-03-28T11:45:38.955Z,99456.36
2019-03-28T11:48:14.293Z,99462.22
2019-03-28T11:50:49.739Z,99455.86
2019-03-28T11:53:23.622Z,99458.94
2019-03-28T11:55:58.969Z,99461.34
2019-03-28T11:58:34.514Z,99460.23
2019-03-28T12:01:35.470Z,99456.86
2019-03-28T12:04:13.300Z,99456.86
2019-03-28T12:06:49.179Z,99461.11
2019-03-28T12:09:25.363Z,99462.50
2019-03-28T12:12:00.704Z,99462.50
2019-03-28T12:14:36.286Z,99465.64
2019-03-28T12:17:11.716Z,99452.67
2019-03-28T12:19:47.286Z,99461.77
2019-03-28T12:22:23.287Z,99461.48
2019-03-28T12:24:58.734Z,99463.10
2019-03-28T12:27:32.805Z,99462.59
2019-03-28T12:30:09.366Z,99464.39
2019-03-28T12:32:44.742Z,99463.93
2019-03-28T12:35:20.297Z,99463.00
2019-03-28T12:37:55.708Z,99463.42
2019-03-28T12:43:00.971Z,99462.96
2019-03-28T12:45:36.345Z,99464.48
2019-03-28T12:48:11.947Z,99464.48
2019-03-28T12:50:58.259Z,99464.34
2019-03-28T12:53:24.400Z,99467.98
2019-03-28T12:55:59.750Z,99467.98
2019-03-28T12:58:36.291Z,99465.22
2019-03-28T13:01:11.723Z,99467.99
2019-03-28T13:03:48.347Z,99465.49
2019-03-28T13:06:24.265Z,99468.08
2019-03-28T13:08:59.702Z,99461.16
2019-03-28T13:11:34.956Z,99458.94
2019-03-28T13:14:48.606Z,99461.80
2019-03-28T13:17:23.956Z,99469.98
2019-03-28T13:19:57.681Z,99470.62
2019-03-28T13:22:32.954Z,99467.52
2019-03-28T13:25:08.745Z,99465.81
2019-03-28T13:27:42.557Z,99476.38
2019-03-28T13:30:18.420Z,99469.69
2019-03-28T13:32:53.653Z,99471.44
2019-03-28T13:35:29.286Z,99463.45
2019-03-28T13:38:04.722Z,99472.27
2019-03-28T13:40:39.889Z,99476.88
2019-03-28T13:43:15.252Z,99472.31
2019-03-28T13:45:50.665Z,99469.12
2019-03-28T13:48:25.876Z,99466.02
2019-03-28T13:51:01.126Z,99461.69
2019-03-28T13:53:39.697Z,99465.84
2019-03-28T13:56:13.646Z,99453.23
2019-03-28T13:59:11.697Z,99452.72
2019-03-28T14:01:47.256Z,99454.53
2019-03-28T14:04:22.743Z,99455.91
2019-03-28T14:06:58.262Z,99458.84
2019-03-28T14:09:33.689Z,99455.41
2019-03-28T14:12:08.953Z,99458.08
2019-03-28T14:14:44.273Z,99463.03
2019-03-28T14:17:20.668Z,99464.06
2019-03-28T14:19:57.309Z,99464.16
2019-03-28T14:22:32.711Z,99459.11
2019-03-28T14:25:08.542Z,99459.38
2019-03-28T14:27:44.927Z,99459.38
2019-03-28T14:30:20.690Z,99463.27
2019-03-28T14:33:10.141Z,99465.19
2019-03-28T14:35:33.281Z,99464.16
2019-03-28T14:38:08.716Z,99463.38
2019-03-28T14:40:42.550Z,99460.94
2019-03-28T14:43:17.719Z,99460.49
2019-03-28T14:45:52.946Z,99454.69
2019-03-28T14:48:28.271Z,99458.60
2019-03-28T14:51:03.940Z,99466.10
2019-03-28T14:53:37.587Z,99462.67
2019-03-28T14:56:12.881Z,99462.67
2019-03-28T14:58:47.574Z,99459.96
2019-03-28T15:01:22.692Z,99463.69
2019-03-28T15:03:58.265Z,99455.90
2019-03-28T15:06:33.677Z,99457.80
2019-03-28T15:09:09.868Z,99452.69
2019-03-28T15:11:43.609Z,99455.45
2019-03-28T15:14:18.669Z,99452.17
2019-03-28T15:16:53.934Z,99456.05
2019-03-28T15:19:29.639Z,99456.05
2019-03-28T15:22:04.933Z,99453.20
2019-03-28T15:24:40.340Z,99458.13
2019-03-28T15:27:15.696Z,99458.13
2019-03-28T15:29:51.269Z,99461.08
2019-03-28T15:32:26.694Z,99454.07
2019-03-28T15:35:02.269Z,99451.72
2019-03-28T15:37:37.742Z,99451.72
2019-03-28T15:40:13.669Z,99446.52
2019-03-28T15:42:49.243Z,99454.58
2019-03-28T15:45:24.681Z,99453.98
2019-03-28T15:48:00.276Z,99459.76
2019-03-28T15:50:35.714Z,99453.89
2019-03-28T15:53:09.577Z,99456.30
2019-03-28T15:55:44.944Z,99458.28
2019-03-28T15:58:23.528Z,99459.40
2019-03-28T16:01:20.667Z,99458.89
2019-03-28T16:03:56.255Z,99463.41
2019-03-28T16:06:31.682Z,99463.41
2019-03-28T16:09:08.303Z,99462.53
2019-03-28T16:11:43.715Z,99464.78
2019-03-28T16:14:17.579Z,99456.39
2019-03-28T16:16:52.877Z,99461.33
2019-03-28T16:19:26.596Z,99458.70
2019-03-28T16:22:04.220Z,99464.60
2019-03-28T16:24:38.946Z,99464.60
2019-03-28T16:27:14.322Z,99463.58
2019-03-28T16:29:50.294Z,99468.76
2019-03-28T16:32:25.906Z,99461.66
2019-03-28T16:34:59.896Z,99466.77
2019-03-28T16:37:33.609Z,99467.13
2019-03-28T16:40:11.335Z,99463.25
2019-03-28T16:42:46.674Z,99463.41
2019-03-28T16:45:22.275Z,99468.06
2019-03-28T16:47:57.667Z,99469.27
2019-03-28T16:50:34.037Z,99472.31
2019-03-28T16:53:09.887Z,99478.88
2019-03-28T16:57:34.563Z,99477.30
2019-03-28T17:00:15.666Z,99471.44
2019-03-28T17:02:51.277Z,99471.44
2019-03-28T17:06:49.270Z,99479.23
2019-03-28T17:09:25.942Z,99479.23
2019-03-28T17:11:59.611Z,99478.81
2019-03-28T17:14:34.880Z,99481.73
2019-03-28T17:17:08.828Z,99471.11
2019-03-28T17:19:44.274Z,99479.32
2019-03-28T17:22:19.670Z,99480.89
2019-03-28T17:24:55.275Z,99481.41
2019-03-28T17:27:30.658Z,99484.02
2019-03-28T17:30:07.376Z,99486.45
2019-03-28T17:32:42.871Z,99489.56
2019-03-28T17:35:17.273Z,99488.33
2019-03-28T17:37:52.309Z,99491.45
2019-03-28T17:40:27.719Z,99491.45
2019-03-28T17:43:01.579Z,99489.98
2019-03-28T17:45:36.862Z,99494.08
2019-03-28T17:48:12.274Z,99491.81
2019-03-28T17:50:47.676Z,99497.63
2019-03-28T17:53:24.160Z,99503.08
2019-03-28T17:56:00.461Z,99506.17
2019-03-28T17:58:36.264Z,99509.64
2019-03-28T18:01:12.389Z,99511.38
2019-03-28T18:03:48.106Z,99518.22
2019-03-28T18:06:23.663Z,99515.54
2019-03-28T18:08:59.307Z,99515.54
2019-03-28T18:11:34.899Z,99515.50
2019-03-28T18:14:10.339Z,99519.90
2019-03-28T18:16:45.674Z,99516.43
2019-03-28T18:19:21.293Z,99521.19
2019-03-28T18:22:03.209Z,99523.27
2019-03-28T18:24:33.677Z,99534.23
2019-03-28T18:27:09.277Z,99534.23
2019-03-28T18:29:44.697Z,99543.66
2019-03-28T18:32:20.276Z,99539.51
2019-03-28T18:35:05.285Z,99540.98
2019-03-28T18:37:32.708Z,99539.59
2019-03-28T18:40:08.301Z,99541.08
2019-03-28T18:42:43.902Z,99538.30
2019-03-28T18:45:20.277Z,99538.83
2019-03-28T18:47:56.269Z,99541.26
2019-03-28T18:50:31.733Z,99547.45
2019-03-28T18:53:07.269Z,99553.44
2019-03-28T18:55:43.280Z,99554.92
2019-03-28T18:58:18.977Z,99556.72
2019-03-28T19:00:54.309Z,99547.31
2019-03-28T19:03:30.334Z,99552.25
2019-03-28T19:06:06.950Z,99548.28
2019-03-28T19:08:42.417Z,99551.41
2019-03-28T19:11:17.913Z,99551.41
2019-03-28T19:13:56.427Z,99554.05
2019-03-28T19:16:32.287Z,99554.05
2019-03-28T19:19:07.720Z,99565.86
2019-03-28T19:21:41.692Z,99559.90
2019-03-28T19:24:17.261Z,99566.73
2019-03-28T19:26:52.953Z,99566.04
2019-03-28T19:29:28.558Z,99563.55
2019-03-28T19:32:03.840Z,99560.45
2019-03-28T19:34:37.584Z,99574.36
2019-03-28T19:37:13.683Z,99574.36
2019-03-28T19:39:49.288Z,99574.13
2019-03-28T19:42:24.946Z,99572.13
2019-03-28T19:45:00.730Z,99574.55
2019-03-28T19:47:37.283Z,99574.55
2019-03-28T19:50:17.657Z,99570.67
2019-03-28T19:55:31.685Z,99568.94
2019-03-28T19:58:07.290Z,99568.94
2019-03-28T20:00:43.862Z,99566.77
2019-03-28T20:03:23.143Z,99572.91
2019-03-28T20:05:57.710Z,99570.83
2019-03-28T20:08:33.293Z,99573.60
2019-03-28T20:11:08.725Z,99572.70
2019-03-28T20:14:07.682Z,99573.84
2019-03-28T20:16:43.282Z,99574.77
2019-03-28T20:19:18.667Z,99574.31
2019-03-28T20:21:54.286Z,99579.52
2019-03-28T20:24:29.719Z,99578.92
2019-03-28T20:27:05.293Z,99578.88
2019-03-28T20:29:40.776Z,99582.61
2019-03-28T20:32:17.039Z,99577.67
2019-03-28T20:34:52.724Z,99572.47
2019-03-28T20:37:29.295Z,99577.73
2019-03-28T20:40:04.694Z,99582.43
2019-03-28T20:42:42.584Z,99570.81
2019-03-28T20:45:18.713Z,99577.91
2019-03-28T20:47:52.655Z,99573.94
2019-03-28T20:50:31.743Z,99576.80
2019-03-28T20:53:06.758Z,99580.36
2019-03-28T20:55:42.283Z,99580.36
2019-03-28T20:58:17.959Z,99584.28
2019-03-28T21:00:53.587Z,99582.89
2019-03-28T21:03:29.296Z,99582.89
2019-03-28T21:06:15.214Z,99588.95
2019-03-28T21:08:42.805Z,99579.25
2019-03-28T21:11:18.298Z,99576.66
2019-03-28T21:13:53.795Z,99572.59
2019-03-28T21:16:29.294Z,99574.82
2019-03-28T21:19:04.702Z,99579.66
2019-03-28T21:21:40.297Z,99577.67
2019-03-28T21:24:15.726Z,99577.67
2019-03-28T21:26:51.289Z,99579.56
2019-03-28T21:29:26.719Z,99580.27
2019-03-28T21:32:02.291Z,99578.70
2019-03-28T21:34:37.732Z,99576.20
2019-03-28T21:37:13.378Z,99573.02
2019-03-28T21:39:48.916Z,99572.75
2019-03-28T21:42:25.868Z,99573.02
2019-03-28T21:45:01.284Z,99572.41
2019-03-28T21:47:36.675Z,99577.49
2019-03-28T21:50:12.501Z,99568.31
2019-03-28T21:52:48.149Z,99567.84
2019-03-28T21:55:23.703Z,99572.51
2019-03-28T21:57:59.283Z,99570.70
2019-03-28T22:00:34.724Z,99574.25
2019-03-28T22:03:10.201Z,99572.88
2019-03-28T22:05:45.672Z,99574.17
2019-03-28T22:08:22.290Z,99574.17
2019-03-28T22:10:57.957Z,99575.55
2019-03-28T22:13:33.296Z,99577.91
2019-03-28T22:16:08.680Z,99575.88
2019-03-28T22:18:44.282Z,99579.07
2019-03-28T22:21:19.945Z,99577.45
2019-03-28T22:23:55.342Z,99574.08
2019-03-28T22:26:31.060Z,99575.19
2019-03-28T22:29:06.661Z,99584.73
2019-03-28T22:31:42.295Z,99584.73
2019-03-28T22:34:17.676Z,99579.34
2019-03-28T22:36:57.448Z,99592.27
2019-03-28T22:39:48.651Z,99581.60
2019-03-28T22:42:27.285Z,99581.60
2019-03-28T22:45:02.695Z,99577.62
2019-03-28T22:47:38.294Z,99574.31
2019-03-28T22:50:14.322Z,99578.83
2019-03-28T22:52:49.696Z,99575.19
2019-03-28T22:55:26.276Z,99581.92
2019-03-28T22:58:01.588Z,99577.91
2019-03-28T23:00:47.587Z,99579.06
2019-03-28T23:03:24.878Z,99577.31
2019-03-28T23:05:58.598Z,99583.88
2019-03-28T23:08:34.728Z,99583.03
2019-03-28T23:11:10.289Z,99578.00
2019-03-28T23:13:45.679Z,99587.38
2019-03-28T23:17:44.724Z,99579.25
2019-03-28T23:20:20.255Z,99579.25
2019-03-28T23:22:55.785Z,99579.62
2019-03-28T23:25:31.286Z,99581.42
2019-03-28T23:28:06.777Z,99576.48
2019-03-28T23:30:42.336Z,99584.61
2019-03-28T23:33:17.732Z,99581.05
2019-03-28T23:35:51.619Z,99581.56
2019-03-28T23:38:27.077Z,99582.53
2019-03-28T23:41:02.671Z,99585.16
2019-03-28T23:43:38.273Z,99585.16
2019-03-28T23:46:13.663Z,99586.62
2019-03-28T23:48:49.273Z,99588.02
2019-03-28T23:51:24.895Z,99588.02
2019-03-28T23:54:00.942Z,99591.11
2019-03-28T23:56:37.055Z,99591.11
2019-03-28T23:59:13.297Z,99589.73
